sensor_id;sensor_type;location;lat;lon;timestamp;P1;durP1;ratioP1;P2;durP2;ratioP2
60436;SDS011;46289;51.992;4.498;2022-12-13T15:38:05;14.43;;;8.13;;
60436;SDS011;46289;51.992;4.498;2022-12-13T15:57:26;31.65;;;17.10;;
60436;SDS011;46289;51.992;4.498;2022-12-13T16:00:07;37.92;;;18.42;;
60436;SDS011;46289;51.992;4.498;2022-12-13T16:02:58;36.47;;;17.58;;
60436;SDS011;46289;51.992;4.498;2022-12-13T16:05:49;35.55;;;15.65;;
60436;SDS011;46289;51.992;4.498;2022-12-13T16:08:40;35.53;;;16.58;;
60436;SDS011;46289;51.992;4.498;2022-12-13T16:11:27;35.97;;;15.80;;
60436;SDS011;46289;51.992;4.498;2022-12-13T16:17:31;35.00;;;15.35;;
60436;SDS011;46289;51.992;4.498;2022-12-13T16:20:07;39.90;;;18.20;;
60436;SDS011;46289;51.992;4.498;2022-12-13T16:22:41;35.15;;;14.50;;
60436;SDS011;46289;51.992;4.498;2022-12-13T16:25:11;33.15;;;16.00;;
60436;SDS011;46289;51.992;4.498;2022-12-13T16:27:42;38.17;;;15.10;;
60436;SDS011;46289;51.992;4.498;2022-12-13T16:30:21;34.25;;;16.02;;
60436;SDS011;46289;51.992;4.498;2022-12-13T16:32:52;39.00;;;17.48;;
60436;SDS011;46289;51.992;4.498;2022-12-13T16:35:42;38.30;;;15.00;;
60436;SDS011;46289;51.992;4.498;2022-12-13T16:38:13;29.58;;;13.82;;
60436;SDS011;46289;51.992;4.498;2022-12-13T16:40:53;33.92;;;16.95;;
60436;SDS011;46289;51.992;4.498;2022-12-13T16:43:24;31.30;;;14.52;;
60436;SDS011;46289;51.992;4.498;2022-12-13T16:46:02;32.90;;;13.95;;
60436;SDS011;46289;51.992;4.498;2022-12-13T16:48:53;30.83;;;16.13;;
60436;SDS011;46289;51.992;4.498;2022-12-13T16:51:23;29.23;;;15.95;;
60436;SDS011;46289;51.992;4.498;2022-12-13T16:54:23;35.50;;;15.63;;
60436;SDS011;46289;51.992;4.498;2022-12-13T16:56:54;25.15;;;11.77;;
60436;SDS011;46289;51.992;4.498;2022-12-13T16:59:25;33.75;;;16.95;;
60436;SDS011;46289;51.992;4.498;2022-12-13T17:01:57;30.15;;;15.43;;
60436;SDS011;46289;51.992;4.498;2022-12-13T17:04:27;37.38;;;17.88;;
60436;SDS011;46289;51.992;4.498;2022-12-13T17:06:57;36.80;;;17.13;;
60436;SDS011;46289;51.992;4.498;2022-12-13T17:09:27;30.92;;;16.27;;
60436;SDS011;46289;51.992;4.498;2022-12-13T17:12:03;32.40;;;15.32;;
60436;SDS011;46289;51.992;4.498;2022-12-13T17:14:33;34.85;;;17.20;;
60436;SDS011;46289;51.992;4.498;2022-12-13T17:17:06;41.85;;;18.02;;
60436;SDS011;46289;51.992;4.498;2022-12-13T17:19:43;36.13;;;19.27;;
60436;SDS011;46289;51.992;4.498;2022-12-13T17:22:12;43.45;;;17.13;;
60436;SDS011;46289;51.992;4.498;2022-12-13T17:24:42;34.55;;;17.52;;
60436;SDS011;46289;51.992;4.498;2022-12-13T17:27:12;41.88;;;16.60;;
60436;SDS011;46289;51.992;4.498;2022-12-13T17:29:43;29.48;;;14.60;;
60436;SDS011;46289;51.992;4.498;2022-12-13T17:32:18;42.47;;;18.70;;
60436;SDS011;46289;51.992;4.498;2022-12-13T17:34:48;36.08;;;15.18;;
60436;SDS011;46289;51.992;4.498;2022-12-13T17:37:18;33.97;;;16.98;;
60436;SDS011;46289;51.992;4.498;2022-12-13T17:39:48;39.42;;;15.93;;
60436;SDS011;46289;51.992;4.498;2022-12-13T17:42:18;33.75;;;17.15;;
60436;SDS011;46289;51.992;4.498;2022-12-13T17:44:48;41.03;;;17.58;;
60436;SDS011;46289;51.992;4.498;2022-12-13T17:47:20;34.10;;;18.67;;
60436;SDS011;46289;51.992;4.498;2022-12-13T17:49:50;43.17;;;18.77;;
60436;SDS011;46289;51.992;4.498;2022-12-13T17:52:20;42.83;;;16.10;;
60436;SDS011;46289;51.992;4.498;2022-12-13T17:54:50;32.30;;;16.30;;
60436;SDS011;46289;51.992;4.498;2022-12-13T17:57:19;38.17;;;18.58;;
60436;SDS011;46289;51.992;4.498;2022-12-13T17:59:50;45.58;;;18.42;;
60436;SDS011;46289;51.992;4.498;2022-12-13T18:02:23;31.90;;;15.60;;
60436;SDS011;46289;51.992;4.498;2022-12-13T18:04:53;39.03;;;18.90;;
60436;SDS011;46289;51.992;4.498;2022-12-13T18:07:23;32.22;;;16.00;;
60436;SDS011;46289;51.992;4.498;2022-12-13T18:09:57;45.05;;;20.38;;
60436;SDS011;46289;51.992;4.498;2022-12-13T18:12:30;47.58;;;17.95;;
60436;SDS011;46289;51.992;4.498;2022-12-13T18:15:01;41.10;;;18.48;;
60436;SDS011;46289;51.992;4.498;2022-12-13T18:17:33;40.47;;;18.77;;
60436;SDS011;46289;51.992;4.498;2022-12-13T18:20:24;38.92;;;17.45;;
60436;SDS011;46289;51.992;4.498;2022-12-13T18:22:56;29.38;;;13.73;;
60436;SDS011;46289;51.992;4.498;2022-12-13T18:25:27;44.17;;;17.93;;
60436;SDS011;46289;51.992;4.498;2022-12-13T18:27:57;40.88;;;18.50;;
60436;SDS011;46289;51.992;4.498;2022-12-13T18:30:28;49.75;;;19.20;;
60436;SDS011;46289;51.992;4.498;2022-12-13T18:33:02;31.48;;;17.23;;
60436;SDS011;46289;51.992;4.498;2022-12-13T18:35:33;40.30;;;18.02;;
60436;SDS011;46289;51.992;4.498;2022-12-13T18:38:04;35.55;;;15.50;;
60436;SDS011;46289;51.992;4.498;2022-12-13T18:40:36;37.03;;;17.38;;
60436;SDS011;46289;51.992;4.498;2022-12-13T18:43:21;36.63;;;19.02;;
60436;SDS011;46289;51.992;4.498;2022-12-13T18:45:54;31.52;;;16.55;;
60436;SDS011;46289;51.992;4.498;2022-12-13T18:48:26;41.60;;;17.30;;
60436;SDS011;46289;51.992;4.498;2022-12-13T18:50:57;39.58;;;18.10;;
60436;SDS011;46289;51.992;4.498;2022-12-13T18:53:27;49.47;;;19.67;;
60436;SDS011;46289;51.992;4.498;2022-12-13T18:55:58;37.42;;;17.25;;
60436;SDS011;46289;51.992;4.498;2022-12-13T18:58:30;42.53;;;18.02;;
60436;SDS011;46289;51.992;4.498;2022-12-13T19:01:00;30.92;;;16.65;;
60436;SDS011;46289;51.992;4.498;2022-12-13T19:03:33;44.17;;;17.15;;
60436;SDS011;46289;51.992;4.498;2022-12-13T19:06:05;33.25;;;15.13;;
60436;SDS011;46289;51.992;4.498;2022-12-13T19:08:35;43.20;;;19.10;;
60436;SDS011;46289;51.992;4.498;2022-12-13T19:11:05;45.08;;;19.00;;
60436;SDS011;46289;51.992;4.498;2022-12-13T19:13:36;45.28;;;21.38;;
60436;SDS011;46289;51.992;4.498;2022-12-13T19:16:08;53.85;;;21.85;;
60436;SDS011;46289;51.992;4.498;2022-12-13T19:18:42;39.72;;;17.35;;
60436;SDS011;46289;51.992;4.498;2022-12-13T19:21:15;45.38;;;19.23;;
60436;SDS011;46289;51.992;4.498;2022-12-13T19:23:53;39.97;;;18.65;;
60436;SDS011;46289;51.992;4.498;2022-12-13T19:26:27;44.35;;;18.60;;
60436;SDS011;46289;51.992;4.498;2022-12-13T19:28:58;51.65;;;23.80;;
60436;SDS011;46289;51.992;4.498;2022-12-13T19:31:29;58.97;;;21.52;;
60436;SDS011;46289;51.992;4.498;2022-12-13T19:34:01;55.88;;;23.13;;
60436;SDS011;46289;51.992;4.498;2022-12-13T19:36:31;52.72;;;21.92;;
60436;SDS011;46289;51.992;4.498;2022-12-13T19:39:01;41.67;;;18.70;;
60436;SDS011;46289;51.992;4.498;2022-12-13T19:41:31;42.90;;;17.95;;
60436;SDS011;46289;51.992;4.498;2022-12-13T19:44:03;38.80;;;17.13;;
60436;SDS011;46289;51.992;4.498;2022-12-13T19:46:34;34.25;;;14.93;;
60436;SDS011;46289;51.992;4.498;2022-12-13T19:49:08;39.72;;;16.92;;
60436;SDS011;46289;51.992;4.498;2022-12-13T19:54:08;31.52;;;14.68;;
60436;SDS011;46289;51.992;4.498;2022-12-13T19:56:38;41.45;;;15.32;;
60436;SDS011;46289;51.992;4.498;2022-12-13T19:59:08;49.50;;;20.45;;
60436;SDS011;46289;51.992;4.498;2022-12-13T20:01:39;34.72;;;16.95;;
60436;SDS011;46289;51.992;4.498;2022-12-13T20:04:12;49.28;;;18.40;;
60436;SDS011;46289;51.992;4.498;2022-12-13T20:06:41;49.17;;;19.00;;
60436;SDS011;46289;51.992;4.498;2022-12-13T20:09:11;52.83;;;22.92;;
60436;SDS011;46289;51.992;4.498;2022-12-13T20:11:41;40.17;;;18.10;;
60436;SDS011;46289;51.992;4.498;2022-12-13T20:14:11;31.73;;;14.90;;
60436;SDS011;46289;51.992;4.498;2022-12-13T20:16:43;38.03;;;17.00;;
60436;SDS011;46289;51.992;4.498;2022-12-13T20:19:16;29.85;;;13.68;;
60436;SDS011;46289;51.992;4.498;2022-12-13T20:21:45;27.35;;;13.55;;
60436;SDS011;46289;51.992;4.498;2022-12-13T20:24:22;36.08;;;15.43;;
60436;SDS011;46289;51.992;4.498;2022-12-13T20:26:52;37.60;;;14.45;;
60436;SDS011;46289;51.992;4.498;2022-12-13T20:29:21;36.90;;;15.45;;
60436;SDS011;46289;51.992;4.498;2022-12-13T20:31:51;26.85;;;13.93;;
60436;SDS011;46289;51.992;4.498;2022-12-13T20:34:24;29.40;;;14.10;;
60436;SDS011;46289;51.992;4.498;2022-12-13T20:36:54;32.15;;;13.80;;
60436;SDS011;46289;51.992;4.498;2022-12-13T20:39:23;27.90;;;13.45;;
60436;SDS011;46289;51.992;4.498;2022-12-13T20:41:53;33.28;;;14.93;;
60436;SDS011;46289;51.992;4.498;2022-12-13T20:44:23;29.10;;;15.10;;
60436;SDS011;46289;51.992;4.498;2022-12-13T20:46:53;31.50;;;14.98;;
60436;SDS011;46289;51.992;4.498;2022-12-13T20:49:26;40.67;;;15.15;;
60436;SDS011;46289;51.992;4.498;2022-12-13T20:51:56;30.50;;;15.52;;
60436;SDS011;46289;51.992;4.498;2022-12-13T20:54:26;32.92;;;17.17;;
60436;SDS011;46289;51.992;4.498;2022-12-13T20:56:56;25.40;;;12.25;;
60436;SDS011;46289;51.992;4.498;2022-12-13T20:59:25;38.95;;;15.13;;
60436;SDS011;46289;51.992;4.498;2022-12-13T21:01:57;33.47;;;15.77;;
60436;SDS011;46289;51.992;4.498;2022-12-13T21:04:30;34.35;;;16.60;;
60436;SDS011;46289;51.992;4.498;2022-12-13T21:06:59;24.70;;;13.77;;
60436;SDS011;46289;51.992;4.498;2022-12-13T21:09:30;31.90;;;13.68;;
60436;SDS011;46289;51.992;4.498;2022-12-13T21:12:00;31.25;;;14.65;;
60436;SDS011;46289;51.992;4.498;2022-12-13T21:14:30;35.55;;;15.88;;
60436;SDS011;46289;51.992;4.498;2022-12-13T21:17:01;39.40;;;13.48;;
60436;SDS011;46289;51.992;4.498;2022-12-13T21:19:37;32.40;;;13.40;;
60436;SDS011;46289;51.992;4.498;2022-12-13T21:22:14;31.33;;;14.30;;
60436;SDS011;46289;51.992;4.498;2022-12-13T21:24:44;29.60;;;11.00;;
60436;SDS011;46289;51.992;4.498;2022-12-13T21:27:14;33.10;;;13.25;;
60436;SDS011;46289;51.992;4.498;2022-12-13T21:29:43;31.75;;;13.82;;
60436;SDS011;46289;51.992;4.498;2022-12-13T21:32:13;28.58;;;13.85;;
60436;SDS011;46289;51.992;4.498;2022-12-13T21:34:45;27.67;;;14.00;;
60436;SDS011;46289;51.992;4.498;2022-12-13T21:37:17;23.48;;;11.93;;
60436;SDS011;46289;51.992;4.498;2022-12-13T21:39:50;31.73;;;11.63;;
60436;SDS011;46289;51.992;4.498;2022-12-13T21:42:20;32.47;;;13.32;;
60436;SDS011;46289;51.992;4.498;2022-12-13T21:44:51;31.95;;;15.00;;
60436;SDS011;46289;51.992;4.498;2022-12-13T21:47:27;26.63;;;12.15;;
60436;SDS011;46289;51.992;4.498;2022-12-13T21:50:05;27.92;;;13.55;;
60436;SDS011;46289;51.992;4.498;2022-12-13T21:52:37;28.23;;;13.82;;
60436;SDS011;46289;51.992;4.498;2022-12-13T21:55:14;38.25;;;16.52;;
60436;SDS011;46289;51.992;4.498;2022-12-13T21:58:04;31.90;;;12.88;;
60436;SDS011;46289;51.992;4.498;2022-12-13T22:00:48;30.27;;;15.77;;
60436;SDS011;46289;51.992;4.498;2022-12-13T22:03:18;69.10;;;16.13;;
60436;SDS011;46289;51.992;4.498;2022-12-13T22:05:50;27.02;;;13.93;;
60436;SDS011;46289;51.992;4.498;2022-12-13T22:08:22;24.58;;;12.85;;
60436;SDS011;46289;51.992;4.498;2022-12-13T22:13:43;29.48;;;12.50;;
60436;SDS011;46289;51.992;4.498;2022-12-13T22:16:14;27.42;;;14.32;;
60436;SDS011;46289;51.992;4.498;2022-12-13T22:18:47;23.10;;;12.00;;
60436;SDS011;46289;51.992;4.498;2022-12-13T22:21:22;29.50;;;15.77;;
60436;SDS011;46289;51.992;4.498;2022-12-13T22:23:51;29.55;;;15.73;;
60436;SDS011;46289;51.992;4.498;2022-12-13T22:26:22;27.75;;;12.52;;
60436;SDS011;46289;51.992;4.498;2022-12-13T22:28:52;27.17;;;13.23;;
60436;SDS011;46289;51.992;4.498;2022-12-13T22:31:25;30.02;;;13.57;;
60436;SDS011;46289;51.992;4.498;2022-12-13T22:33:55;27.38;;;12.52;;
60436;SDS011;46289;51.992;4.498;2022-12-13T22:36:30;38.55;;;14.75;;
60436;SDS011;46289;51.992;4.498;2022-12-13T22:39:04;28.20;;;13.48;;
60436;SDS011;46289;51.992;4.498;2022-12-13T22:41:35;36.58;;;14.93;;
60436;SDS011;46289;51.992;4.498;2022-12-13T22:44:05;30.25;;;13.30;;
60436;SDS011;46289;51.992;4.498;2022-12-13T22:46:35;27.25;;;14.38;;
60436;SDS011;46289;51.992;4.498;2022-12-13T22:49:06;20.83;;;11.38;;
60436;SDS011;46289;51.992;4.498;2022-12-13T22:51:42;32.90;;;13.18;;
60436;SDS011;46289;51.992;4.498;2022-12-13T22:54:12;22.33;;;11.25;;
60436;SDS011;46289;51.992;4.498;2022-12-13T22:56:42;27.85;;;13.75;;
60436;SDS011;46289;51.992;4.498;2022-12-13T22:59:12;28.92;;;13.32;;
60436;SDS011;46289;51.992;4.498;2022-12-13T23:01:42;32.63;;;14.77;;
60436;SDS011;46289;51.992;4.498;2022-12-13T23:04:14;29.02;;;13.02;;
60436;SDS011;46289;51.992;4.498;2022-12-13T23:06:47;32.10;;;14.27;;
60436;SDS011;46289;51.992;4.498;2022-12-13T23:09:17;25.20;;;12.38;;
60436;SDS011;46289;51.992;4.498;2022-12-13T23:11:47;44.95;;;14.43;;
60436;SDS011;46289;51.992;4.498;2022-12-13T23:14:30;28.92;;;12.80;;
60436;SDS011;46289;51.992;4.498;2022-12-13T23:17:01;21.50;;;10.75;;
60436;SDS011;46289;51.992;4.498;2022-12-13T23:19:32;21.77;;;12.95;;
60436;SDS011;46289;51.992;4.498;2022-12-13T23:22:19;27.13;;;11.68;;
60436;SDS011;46289;51.992;4.498;2022-12-13T23:24:55;31.40;;;13.73;;
60436;SDS011;46289;51.992;4.498;2022-12-13T23:27:25;28.98;;;13.23;;
60436;SDS011;46289;51.992;4.498;2022-12-13T23:29:55;26.20;;;11.63;;
60436;SDS011;46289;51.992;4.498;2022-12-13T23:32:24;30.98;;;13.43;;
60436;SDS011;46289;51.992;4.498;2022-12-13T23:34:55;29.50;;;13.32;;
60436;SDS011;46289;51.992;4.498;2022-12-13T23:37:28;27.73;;;10.50;;
60436;SDS011;46289;51.992;4.498;2022-12-13T23:40:02;32.85;;;13.30;;
60436;SDS011;46289;51.992;4.498;2022-12-13T23:42:36;29.15;;;13.13;;
60436;SDS011;46289;51.992;4.498;2022-12-13T23:45:08;25.08;;;12.02;;
60436;SDS011;46289;51.992;4.498;2022-12-13T23:47:38;25.20;;;11.90;;
60436;SDS011;46289;51.992;4.498;2022-12-13T23:50:09;25.40;;;12.85;;
60436;SDS011;46289;51.992;4.498;2022-12-13T23:52:46;27.05;;;12.27;;
60436;SDS011;46289;51.992;4.498;2022-12-13T23:55:16;28.70;;;11.88;;
60436;SDS011;46289;51.992;4.498;2022-12-13T23:57:46;25.95;;;10.52;;
